N170D -KSEZ

Flight info

Callsign N170D
Flight time N/A
Altitude
Route
Aircraft C172/L-DOV/C

Departure

Time N/A
Airport -

Arrival

Time 2026-05-03 23:54
Airport Sedona Airport (KSEZ)
Time Latitude Longitude Altitude Speed Heading
2026-05-03 22:40 32.42317 -111.24462 3603 ft 119 kts 330°
2026-05-03 22:40 32.43058 -111.24825 3981 ft 111 kts 342°
2026-05-03 22:40 32.43786 -111.25068 4268 ft 109 kts 335°
2026-05-03 22:40 32.44465 -111.25516 4477 ft 118 kts 337°
2026-05-03 22:41 32.45276 -111.25703 4763 ft 117 kts 353°
2026-05-03 22:41 32.46054 -111.25818 5016 ft 109 kts 352°
2026-05-03 22:41 32.46769 -111.25905 5248 ft 103 kts 354°
2026-05-03 22:41 32.47470 -111.25943 5426 ft 102 kts 354°
2026-05-03 22:42 32.48209 -111.26010 5527 ft 109 kts 357°
2026-05-03 22:42 32.48965 -111.26055 5741 ft 112 kts 358°
2026-05-03 22:42 32.49745 -111.26124 5984 ft 113 kts 341°
2026-05-03 22:42 32.50536 -111.26354 6191 ft 118 kts 343°
2026-05-03 22:43 32.51293 -111.26642 6463 ft 114 kts 325°
2026-05-03 22:43 32.52009 -111.27122 6623 ft 122 kts 334°
2026-05-03 22:43 32.52828 -111.27338 6881 ft 121 kts 354°
2026-05-03 22:43 32.53682 -111.27376 7084 ft 123 kts 358°
2026-05-03 22:44 32.54523 -111.27386 7347 ft 121 kts 358°
2026-05-03 22:44 32.55375 -111.27352 7573 ft 123 kts
2026-05-03 22:44 32.56229 -111.27344 7812 ft 123 kts 360°
2026-05-03 22:44 32.57082 -111.27340 8027 ft 124 kts 360°
2026-05-03 22:45 32.57940 -111.27347 8280 ft 121 kts 358°
2026-05-03 22:45 32.58780 -111.27385 8449 ft 126 kts 358°
2026-05-03 22:45 32.59659 -111.27374 8692 ft 126 kts
2026-05-03 22:45 32.60600 -111.27357 8702 ft 143 kts
2026-05-03 22:46 32.61639 -111.27347 8727 ft 153 kts
2026-05-03 22:46 32.62716 -111.27269 8767 ft 156 kts
2026-05-03 22:46 32.63796 -111.27140 8899 ft 157 kts
2026-05-03 22:46 32.64856 -111.27005 9069 ft 146 kts
2026-05-03 22:47 32.65828 -111.26883 9222 ft 136 kts
2026-05-03 22:47 32.66731 -111.26774 9380 ft 129 kts
2026-05-03 22:47 32.67634 -111.26665 9466 ft 130 kts
2026-05-03 22:47 32.68560 -111.26554 9491 ft 138 kts
2026-05-03 22:48 32.69498 -111.26442 9489 ft 136 kts
2026-05-03 22:48 32.70447 -111.26323 9493 ft 136 kts
2026-05-03 22:48 32.71393 -111.26209 9491 ft 136 kts
2026-05-03 22:48 32.72338 -111.26152 9488 ft 136 kts 357°
2026-05-03 22:49 32.73284 -111.26222 9486 ft 136 kts 355°
2026-05-03 22:49 32.74231 -111.26303 9485 ft 137 kts 355°
2026-05-03 22:49 32.75199 -111.26390 9489 ft 142 kts 355°
2026-05-03 22:49 32.76200 -111.26481 9484 ft 145 kts 355°
2026-05-03 22:50 32.77200 -111.26572 9483 ft 144 kts 355°
2026-05-03 22:50 32.78194 -111.26659 9480 ft 143 kts 355°
2026-05-03 22:50 32.79182 -111.26701 9476 ft 142 kts 359°
2026-05-03 22:50 32.80167 -111.26711 9468 ft 141 kts 359°
2026-05-03 22:51 32.81148 -111.26718 9469 ft 143 kts 359°
2026-05-03 22:51 32.82152 -111.26726 9474 ft 146 kts 359°
2026-05-03 22:51 32.83182 -111.26736 9472 ft 149 kts 359°
2026-05-03 22:51 32.84213 -111.26747 9468 ft 150 kts 359°
2026-05-03 22:52 32.85257 -111.26756 9460 ft 149 kts 359°
2026-05-03 22:52 32.86288 -111.26767 9455 ft 147 kts 359°
2026-05-03 22:52 32.87302 -111.26779 9447 ft 145 kts 359°
2026-05-03 22:52 32.88312 -111.26793 9447 ft 143 kts 359°
2026-05-03 22:53 32.89300 -111.26809 9440 ft 143 kts 359°
2026-05-03 22:53 32.90296 -111.26824 9437 ft 143 kts 359°
2026-05-03 22:53 32.91287 -111.26834 9436 ft 143 kts 359°
2026-05-03 22:53 32.92282 -111.26846 9434 ft 143 kts 359°
2026-05-03 22:54 32.93275 -111.26859 9436 ft 143 kts 359°
2026-05-03 22:54 32.94271 -111.26874 9434 ft 143 kts 359°
2026-05-03 22:54 32.95260 -111.26887 9432 ft 142 kts 359°
2026-05-03 22:54 32.96245 -111.26895 9429 ft 141 kts 359°
2026-05-03 22:55 32.97227 -111.26904 9428 ft 141 kts 359°
2026-05-03 22:55 32.98213 -111.26912 9428 ft 142 kts 359°
2026-05-03 22:55 32.99200 -111.26919 9425 ft 141 kts 360°
2026-05-03 22:55 33.00179 -111.26929 9426 ft 141 kts 359°
2026-05-03 22:56 33.01159 -111.26942 9426 ft 141 kts 359°
2026-05-03 22:56 33.02143 -111.26957 9423 ft 141 kts 359°
2026-05-03 22:56 33.03126 -111.26968 9425 ft 141 kts 359°
2026-05-03 22:56 33.03774 -111.26977 9424 ft 141 kts 359°
2026-05-03 22:57 33.04757 -111.26992 9424 ft 141 kts 359°
2026-05-03 22:57 33.05742 -111.27010 9423 ft 141 kts 359°
2026-05-03 22:57 33.06721 -111.27030 9418 ft 141 kts 359°
2026-05-03 22:57 33.07705 -111.27052 9420 ft 142 kts 359°
2026-05-03 22:58 33.08693 -111.27077 9425 ft 143 kts 359°
2026-05-03 22:58 33.09697 -111.27103 9430 ft 144 kts 359°
2026-05-03 22:58 33.10698 -111.27132 9423 ft 143 kts 359°
2026-05-03 22:58 33.11685 -111.27162 9425 ft 142 kts 359°
2026-05-03 22:59 33.12670 -111.27164 9424 ft 141 kts
2026-05-03 22:59 33.13661 -111.27127 9423 ft 143 kts
2026-05-03 22:59 33.14662 -111.27092 9424 ft 144 kts
2026-05-03 22:59 33.15664 -111.27060 9420 ft 144 kts
2026-05-03 23:00 33.16667 -111.27029 9429 ft 145 kts
2026-05-03 23:00 33.17677 -111.27001 9429 ft 145 kts
2026-05-03 23:00 33.18689 -111.26971 9431 ft 145 kts
2026-05-03 23:00 33.19698 -111.26943 9430 ft 145 kts
2026-05-03 23:01 33.20703 -111.26916 9428 ft 145 kts
2026-05-03 23:01 33.21711 -111.26889 9430 ft 145 kts
2026-05-03 23:01 33.22715 -111.26857 9415 ft 145 kts
2026-05-03 23:01 33.23722 -111.26827 9421 ft 145 kts
2026-05-03 23:02 33.24725 -111.26801 9419 ft 144 kts
2026-05-03 23:02 33.25725 -111.26776 9416 ft 143 kts
2026-05-03 23:02 33.26711 -111.26755 9421 ft 143 kts
2026-05-03 23:02 33.27707 -111.26736 9420 ft 143 kts
2026-05-03 23:03 33.28707 -111.26718 9423 ft 144 kts
2026-05-03 23:03 33.29707 -111.26695 9421 ft 144 kts
2026-05-03 23:03 33.30712 -111.26676 9418 ft 144 kts
2026-05-03 23:03 33.31714 -111.26659 9420 ft 144 kts
2026-05-03 23:04 33.32722 -111.26643 9422 ft 144 kts
2026-05-03 23:04 33.33722 -111.26627 9423 ft 143 kts
2026-05-03 23:04 33.34711 -111.26548 9408 ft 141 kts
2026-05-03 23:04 33.35678 -111.26402 9415 ft 140 kts
2026-05-03 23:05 33.36651 -111.26256 9413 ft 142 kts
2026-05-03 23:05 33.37656 -111.26107 9429 ft 148 kts
2026-05-03 23:05 33.38679 -111.25955 9427 ft 147 kts
2026-05-03 23:05 33.39692 -111.25805 9419 ft 145 kts
2026-05-03 23:06 33.40687 -111.25663 9420 ft 143 kts
2026-05-03 23:06 33.41675 -111.25521 9411 ft 143 kts
2026-05-03 23:06 33.42668 -111.25371 9417 ft 144 kts
2026-05-03 23:06 33.43661 -111.25222 9424 ft 142 kts
2026-05-03 23:07 33.44649 -111.25070 9423 ft 144 kts 10°
2026-05-03 23:07 33.45644 -111.24918 9426 ft 146 kts
2026-05-03 23:07 33.46629 -111.24766 9426 ft 146 kts
2026-05-03 23:07 33.47636 -111.24615 9428 ft 146 kts
2026-05-03 23:08 33.48659 -111.24469 9426 ft 145 kts
2026-05-03 23:08 33.49662 -111.24319 9435 ft 150 kts 10°
2026-05-03 23:08 33.50694 -111.24163 9431 ft 150 kts
2026-05-03 23:08 33.51736 -111.24010 9434 ft 152 kts
2026-05-03 23:09 33.52785 -111.23852 9428 ft 152 kts
2026-05-03 23:09 33.53821 -111.23692 9426 ft 147 kts
2026-05-03 23:09 33.54838 -111.23538 9420 ft 147 kts
2026-05-03 23:09 33.55848 -111.23389 9412 ft 145 kts
2026-05-03 23:10 33.56840 -111.23241 9429 ft 143 kts 10°
2026-05-03 23:10 33.57825 -111.23094 9421 ft 142 kts
2026-05-03 23:10 33.58803 -111.22952 9423 ft 142 kts
2026-05-03 23:10 33.59791 -111.22802 9428 ft 145 kts
2026-05-03 23:11 33.60826 -111.22635 9445 ft 154 kts
2026-05-03 23:11 33.61909 -111.22458 9438 ft 159 kts 10°
2026-05-03 23:11 33.62990 -111.22277 9446 ft 154 kts
2026-05-03 23:11 33.64038 -111.22099 9439 ft 151 kts
2026-05-03 23:12 33.65063 -111.21926 9432 ft 147 kts
2026-05-03 23:12 33.66064 -111.21759 9431 ft 146 kts 10°
2026-05-03 23:12 33.67086 -111.21590 9436 ft 147 kts 10°
2026-05-03 23:12 33.68109 -111.21414 9433 ft 149 kts
2026-05-03 23:13 33.69124 -111.21242 9428 ft 149 kts
2026-05-03 23:13 33.70146 -111.21068 9436 ft 148 kts
2026-05-03 23:13 33.71173 -111.20919 9431 ft 149 kts 358°
2026-05-03 23:13 33.72168 -111.21207 9437 ft 147 kts 340°
2026-05-03 23:14 33.73141 -111.21599 9436 ft 148 kts 340°
2026-05-03 23:14 33.74114 -111.21987 9437 ft 147 kts 340°
2026-05-03 23:14 33.75086 -111.22375 9441 ft 147 kts 340°
2026-05-03 23:14 33.76063 -111.22757 9442 ft 149 kts 341°
2026-05-03 23:15 33.77039 -111.23139 9447 ft 147 kts 341°
2026-05-03 23:15 33.78003 -111.23516 9444 ft 145 kts 340°
2026-05-03 23:15 33.78971 -111.23896 9442 ft 148 kts 340°
2026-05-03 23:15 33.79954 -111.24280 9445 ft 149 kts 340°
2026-05-03 23:16 33.80950 -111.24663 9449 ft 151 kts 340°
2026-05-03 23:16 33.81950 -111.25049 9450 ft 152 kts 340°
2026-05-03 23:16 33.82958 -111.25439 9450 ft 152 kts 340°
2026-05-03 23:16 33.83948 -111.25822 9452 ft 152 kts 340°
2026-05-03 23:17 33.84952 -111.26207 9460 ft 151 kts 340°
2026-05-03 23:17 33.85958 -111.26587 9460 ft 151 kts 340°
2026-05-03 23:17 33.86967 -111.26964 9460 ft 151 kts 341°
2026-05-03 23:17 33.87972 -111.27342 9462 ft 152 kts 340°
2026-05-03 23:18 33.88977 -111.27722 9460 ft 151 kts 340°
2026-05-03 23:18 33.89980 -111.28097 9463 ft 151 kts 341°
2026-05-03 23:18 33.90988 -111.28474 9468 ft 152 kts 341°
2026-05-03 23:18 33.91997 -111.28853 9471 ft 152 kts 340°
2026-05-03 23:19 33.93003 -111.29231 9485 ft 152 kts 340°
2026-05-03 23:19 33.94018 -111.29604 9489 ft 152 kts 340°
2026-05-03 23:19 33.95035 -111.29976 9503 ft 152 kts 340°
2026-05-03 23:19 33.96046 -111.30346 9510 ft 152 kts 340°
2026-05-03 23:20 33.97057 -111.30709 9519 ft 151 kts 341°
2026-05-03 23:20 33.98061 -111.31079 9528 ft 151 kts 340°
2026-05-03 23:20 33.99056 -111.31442 9531 ft 151 kts 340°
2026-05-03 23:20 34.00067 -111.31807 9542 ft 152 kts 341°
2026-05-03 23:21 34.01083 -111.32173 9546 ft 148 kts 340°
2026-05-03 23:21 34.02051 -111.32517 9547 ft 146 kts 341°
2026-05-03 23:21 34.03019 -111.32867 9559 ft 145 kts 340°
2026-05-03 23:21 34.03983 -111.33211 9564 ft 144 kts 340°
2026-05-03 23:22 34.05912 -111.33901 9588 ft 144 kts 340°
2026-05-03 23:22 34.06887 -111.34243 9600 ft 147 kts 341°
2026-05-03 23:22 34.07872 -111.34591 9610 ft 148 kts 341°
2026-05-03 23:23 34.08871 -111.34940 9619 ft 151 kts 341°
2026-05-03 23:23 34.09884 -111.35299 9625 ft 151 kts 340°
2026-05-03 23:23 34.10899 -111.35654 9629 ft 152 kts 340°
2026-05-03 23:23 34.11913 -111.36004 9635 ft 152 kts 340°
2026-05-03 23:24 34.12928 -111.36357 9648 ft 153 kts 340°
2026-05-03 23:24 34.13953 -111.36713 9656 ft 153 kts 340°
2026-05-03 23:24 34.14977 -111.37068 9656 ft 154 kts 340°
2026-05-03 23:24 34.16007 -111.37428 9668 ft 155 kts 340°
2026-05-03 23:25 34.17042 -111.37794 9657 ft 155 kts 340°
2026-05-03 23:25 34.18079 -111.38153 9664 ft 155 kts 340°
2026-05-03 23:25 34.19098 -111.38546 9655 ft 152 kts 329°
2026-05-03 23:25 34.19971 -111.39243 9656 ft 150 kts 317°
2026-05-03 23:26 34.20685 -111.40124 9645 ft 143 kts 294°
2026-05-03 23:26 34.21104 -111.41186 9659 ft 139 kts 287°
2026-05-03 23:26 34.21500 -111.42231 9656 ft 138 kts 288°
2026-05-03 23:26 34.21875 -111.43311 9657 ft 140 kts 284°
2026-05-03 23:27 34.22236 -111.44407 9661 ft 142 kts 285°
2026-05-03 23:27 34.22600 -111.45520 9655 ft 141 kts 284°
2026-05-03 23:27 34.22961 -111.46627 9648 ft 142 kts 284°
2026-05-03 23:27 34.23324 -111.47737 9649 ft 143 kts 284°
2026-05-03 23:28 34.23687 -111.48855 9637 ft 143 kts 282°
2026-05-03 23:28 34.24052 -111.49964 9632 ft 141 kts 283°
2026-05-03 23:28 34.24416 -111.51069 9627 ft 142 kts 283°
2026-05-03 23:28 34.24790 -111.52176 9624 ft 143 kts 284°
2026-05-03 23:29 34.25170 -111.53289 9615 ft 142 kts 284°
2026-05-03 23:29 34.25550 -111.54393 9608 ft 141 kts 285°
2026-05-03 23:29 34.25928 -111.55491 9604 ft 141 kts 284°
2026-05-03 23:29 34.26303 -111.56575 9600 ft 142 kts 284°
2026-05-03 23:30 34.26681 -111.57688 9593 ft 143 kts 285°
2026-05-03 23:30 34.27050 -111.58791 9581 ft 139 kts 285°
2026-05-03 23:30 34.27411 -111.59852 9580 ft 136 kts 284°
2026-05-03 23:30 34.27788 -111.60961 9575 ft 149 kts 285°
2026-05-03 23:31 34.28177 -111.62136 9575 ft 152 kts 284°
2026-05-03 23:31 34.28754 -111.63241 9558 ft 159 kts 304°
2026-05-03 23:31 34.29541 -111.64158 9548 ft 157 kts 314°
2026-05-03 23:31 34.30377 -111.65003 9538 ft 156 kts 313°
2026-05-03 23:32 34.31204 -111.65848 9542 ft 156 kts 315°
2026-05-03 23:32 34.32034 -111.66688 9532 ft 154 kts 314°
2026-05-03 23:32 34.32859 -111.67516 9523 ft 155 kts 313°
2026-05-03 23:32 34.33689 -111.68351 9519 ft 156 kts 313°
2026-05-03 23:33 34.34521 -111.69198 9508 ft 155 kts 315°
2026-05-03 23:33 34.35339 -111.70036 9502 ft 155 kts 314°
2026-05-03 23:33 34.36161 -111.70878 9499 ft 154 kts 313°
2026-05-03 23:33 34.36981 -111.71722 9487 ft 154 kts 313°
2026-05-03 23:34 34.37801 -111.72539 9487 ft 156 kts 317°
2026-05-03 23:34 34.38702 -111.73290 9484 ft 157 kts 321°
2026-05-03 23:34 34.39587 -111.74065 9481 ft 157 kts 319°
2026-05-03 23:34 34.40471 -111.74835 9476 ft 156 kts 318°
2026-05-03 23:35 34.41357 -111.75596 9473 ft 156 kts 319°
2026-05-03 23:35 34.42234 -111.76362 9474 ft 155 kts 319°
2026-05-03 23:35 34.43108 -111.77118 9467 ft 155 kts 318°
2026-05-03 23:35 34.43985 -111.77871 9466 ft 154 kts 319°
2026-05-03 23:36 34.44864 -111.78619 9476 ft 154 kts 318°
2026-05-03 23:36 34.45737 -111.79369 9462 ft 154 kts 317°
2026-05-03 23:36 34.46614 -111.80113 9463 ft 154 kts 320°
2026-05-03 23:36 34.47489 -111.80860 9469 ft 154 kts 319°
2026-05-03 23:37 34.48363 -111.81606 9463 ft 154 kts 318°
2026-05-03 23:37 34.49242 -111.82350 9465 ft 154 kts 319°
2026-05-03 23:37 34.50119 -111.83094 9472 ft 153 kts 319°
2026-05-03 23:37 34.51003 -111.83811 9474 ft 154 kts 323°
2026-05-03 23:38 34.51895 -111.84520 9485 ft 153 kts 320°
2026-05-03 23:38 34.52785 -111.85252 9488 ft 156 kts 321°
2026-05-03 23:38 34.53725 -111.85917 9495 ft 157 kts 325°
2026-05-03 23:38 34.54680 -111.86576 9500 ft 157 kts 325°
2026-05-03 23:39 34.55627 -111.87239 9507 ft 158 kts 326°
2026-05-03 23:39 34.56568 -111.87891 9506 ft 158 kts 324°
2026-05-03 23:39 34.57529 -111.88543 9511 ft 157 kts 325°
2026-05-03 23:39 34.58484 -111.89191 9515 ft 157 kts 324°
2026-05-03 23:40 34.59436 -111.89843 9516 ft 157 kts 326°
2026-05-03 23:40 34.60494 -111.90175 9514 ft 162 kts
2026-05-03 23:40 34.61606 -111.89975 9520 ft 163 kts 14°
2026-05-03 23:40 34.62692 -111.89574 9525 ft 164 kts 17°
2026-05-03 23:41 34.63812 -111.89156 9445 ft 170 kts 17°
2026-05-03 23:41 34.64920 -111.88741 9451 ft 164 kts 17°
2026-05-03 23:41 34.65996 -111.88337 9454 ft 162 kts 17°
2026-05-03 23:41 34.67066 -111.87936 9410 ft 158 kts 18°
2026-05-03 23:42 34.68065 -111.87487 9332 ft 150 kts 21°
2026-05-03 23:42 34.69030 -111.87034 9198 ft 151 kts 22°
2026-05-03 23:42 34.70003 -111.86550 9066 ft 151 kts 22°
2026-05-03 23:42 34.70971 -111.86068 8993 ft 147 kts 23°
2026-05-03 23:43 34.71900 -111.85567 8873 ft 146 kts 24°
2026-05-03 23:43 34.72511 -111.85220 8789 ft 146 kts 26°
2026-05-03 23:43 34.73419 -111.84698 8685 ft 147 kts 27°
2026-05-03 23:43 34.74349 -111.84166 8475 ft 150 kts 25°
2026-05-03 23:44 34.75623 -111.83419 8159 ft 154 kts 28°
2026-05-03 23:44 34.76269 -111.83025 8047 ft 152 kts 27°
2026-05-03 23:44 34.77206 -111.82460 7886 ft 152 kts 26°
2026-05-03 23:44 34.78147 -111.81899 7713 ft 152 kts 27°
2026-05-03 23:45 34.79062 -111.81318 7597 ft 142 kts 30°
2026-05-03 23:45 34.79918 -111.80776 7342 ft 135 kts 27°
2026-05-03 23:45 34.80723 -111.80263 7138 ft 129 kts 28°
2026-05-03 23:45 34.81508 -111.79739 6932 ft 129 kts 31°
2026-05-03 23:46 34.82281 -111.79172 6723 ft 130 kts 31°
2026-05-03 23:46 34.83040 -111.78604 6600 ft 129 kts 33°
2026-05-03 23:46 34.83775 -111.78030 6379 ft 125 kts 34°
2026-05-03 23:46 34.84500 -111.77443 6225 ft 122 kts 35°
2026-05-03 23:47 34.85195 -111.76859 6053 ft 116 kts 39°
2026-05-03 23:47 34.85830 -111.76298 5990 ft 107 kts 34°
2026-05-03 23:47 34.86518 -111.76276 5804 ft 99 kts 311°
2026-05-03 23:47 34.86794 -111.76920 5561 ft 79 kts 246°
2026-05-03 23:48 34.86467 -111.77279 5218 ft 61 kts 202°
2026-05-03 23:48 34.86095 -111.77522 5081 ft 64 kts 205°
2026-05-03 23:48 34.85691 -111.77843 5015 ft 71 kts 214°
2026-05-03 23:48 34.85329 -111.78255 4914 ft 71 kts 226°
2026-05-03 23:49 34.84989 -111.78724 5110 ft 81 kts 218°
2026-05-03 23:49 34.84582 -111.79246 5377 ft 87 kts 218°
2026-05-03 23:49 34.84143 -111.79792 5655 ft 94 kts 221°
2026-05-03 23:49 34.83695 -111.80360 5901 ft 90 kts 217°
2026-05-03 23:50 34.83089 -111.80451 5938 ft 100 kts 164°
2026-05-03 23:50 34.82469 -111.80111 5961 ft 100 kts 150°
2026-05-03 23:50 34.82276 -111.79276 5978 ft 118 kts 83°
2026-05-03 23:50 34.82797 -111.78471 5969 ft 125 kts 44°
2026-05-03 23:51 34.83462 -111.77790 5921 ft 126 kts 42°
2026-05-03 23:51 34.84164 -111.77182 5923 ft 125 kts 36°
2026-05-03 23:51 34.84886 -111.76597 5908 ft 124 kts 37°
2026-05-03 23:51 34.85598 -111.76024 5928 ft 120 kts 37°
2026-05-03 23:52 34.86317 -111.75460 5806 ft 120 kts 27°
2026-05-03 23:52 34.87039 -111.75539 5650 ft 102 kts 295°
2026-05-03 23:52 34.86950 -111.76201 5413 ft 81 kts 222°
2026-05-03 23:52 34.86605 -111.76700 5319 ft 72 kts 219°
2026-05-03 23:53 34.86308 -111.77108 5174 ft 60 kts 216°
2026-05-03 23:53 34.85992 -111.77447 5045 ft 64 kts 213°
2026-05-03 23:53 34.85656 -111.77875 5024 ft 76 kts 220°
2026-05-03 23:53 34.85276 -111.78310 4875 ft 72 kts 223°
2026-05-03 23:54 34.84955 -111.78734 4791 ft 60 kts 220°
2026-05-03 23:54 34.84759 -111.78960 4775 ft 15 kts 225°
2026-05-03 23:54 34.84751 -111.78969 4774 ft 0 kts 224°
2026-05-03 23:54 34.84716 -111.79015 4771 ft 20 kts 224°
2026-05-03 23:55 34.84629 -111.79127 4770 ft 17 kts 248°
2026-05-03 23:55 34.84684 -111.79176 4766 ft 11 kts 45°
2026-05-03 23:55 34.84736 -111.79114 4770 ft 10 kts 41°
2026-05-03 23:55 34.84783 -111.79058 4774 ft 8 kts 44°
2026-05-03 23:56 34.84821 -111.79020 4776 ft 6 kts
2026-05-03 23:56 34.84855 -111.79023 4778 ft 3 kts 19°
2026-05-03 23:56 34.84874 -111.79024 4780 ft 3 kts 333°
2026-05-03 23:56 34.84878 -111.79028 4780 ft 0 kts 316°